sensor_id;sensor_type;location;lat;lon;timestamp;P1;durP1;ratioP1;P2;durP2;ratioP2
17253;SDS011;32542;52.832;13.816;2023-04-01T00:00:36;2.40;;;1.48;;
17253;SDS011;32542;52.832;13.816;2023-04-01T00:03:39;4.13;;;1.80;;
17253;SDS011;32542;52.832;13.816;2023-04-01T00:06:42;3.80;;;1.70;;
17253;SDS011;32542;52.832;13.816;2023-04-01T00:09:47;2.30;;;1.60;;
17253;SDS011;32542;52.832;13.816;2023-04-01T00:12:50;2.72;;;1.58;;
17253;SDS011;32542;52.832;13.816;2023-04-01T00:15:53;3.15;;;1.45;;
17253;SDS011;32542;52.832;13.816;2023-04-01T00:18:58;4.13;;;1.80;;
17253;SDS011;32542;52.832;13.816;2023-04-01T00:22:01;2.45;;;1.55;;
17253;SDS011;32542;52.832;13.816;2023-04-01T00:25:06;3.40;;;1.50;;
17253;SDS011;32542;52.832;13.816;2023-04-01T00:28:09;2.35;;;1.38;;
17253;SDS011;32542;52.832;13.816;2023-04-01T00:31:12;1.80;;;1.40;;
17253;SDS011;32542;52.832;13.816;2023-04-01T00:34:16;2.67;;;1.70;;
17253;SDS011;32542;52.832;13.816;2023-04-01T00:37:19;2.65;;;1.52;;
17253;SDS011;32542;52.832;13.816;2023-04-01T00:40:25;2.80;;;1.50;;
17253;SDS011;32542;52.832;13.816;2023-04-01T00:43:29;2.45;;;1.75;;
17253;SDS011;32542;52.832;13.816;2023-04-01T00:46:32;3.45;;;1.80;;
17253;SDS011;32542;52.832;13.816;2023-04-01T00:49:37;3.30;;;1.58;;
17253;SDS011;32542;52.832;13.816;2023-04-01T00:52:42;3.20;;;1.65;;
17253;SDS011;32542;52.832;13.816;2023-04-01T00:55:48;2.67;;;1.52;;
17253;SDS011;32542;52.832;13.816;2023-04-01T00:58:57;2.67;;;1.60;;
17253;SDS011;32542;52.832;13.816;2023-04-01T01:02:03;3.60;;;1.50;;
17253;SDS011;32542;52.832;13.816;2023-04-01T01:05:11;2.50;;;1.55;;
17253;SDS011;32542;52.832;13.816;2023-04-01T01:08:15;2.92;;;1.60;;
17253;SDS011;32542;52.832;13.816;2023-04-01T01:11:27;2.08;;;1.33;;
17253;SDS011;32542;52.832;13.816;2023-04-01T01:14:47;2.85;;;1.50;;
17253;SDS011;32542;52.832;13.816;2023-04-01T01:17:57;1.92;;;1.30;;
17253;SDS011;32542;52.832;13.816;2023-04-01T01:24:43;2.85;;;1.58;;
17253;SDS011;32542;52.832;13.816;2023-04-01T01:28:00;2.75;;;1.70;;
17253;SDS011;32542;52.832;13.816;2023-04-01T01:31:19;3.10;;;1.80;;
17253;SDS011;32542;52.832;13.816;2023-04-01T01:34:26;2.63;;;1.60;;
17253;SDS011;32542;52.832;13.816;2023-04-01T01:37:35;1.83;;;1.33;;
17253;SDS011;32542;52.832;13.816;2023-04-01T01:40:41;1.77;;;1.25;;
17253;SDS011;32542;52.832;13.816;2023-04-01T01:43:47;3.10;;;1.80;;
17253;SDS011;32542;52.832;13.816;2023-04-01T01:46:53;2.38;;;1.48;;
17253;SDS011;32542;52.832;13.816;2023-04-01T01:49:57;2.13;;;1.30;;
17253;SDS011;32542;52.832;13.816;2023-04-01T01:53:03;2.08;;;1.42;;
17253;SDS011;32542;52.832;13.816;2023-04-01T01:56:07;2.30;;;1.67;;
17253;SDS011;32542;52.832;13.816;2023-04-01T01:59:13;3.28;;;1.80;;
17253;SDS011;32542;52.832;13.816;2023-04-01T02:02:18;2.97;;;1.58;;
17253;SDS011;32542;52.832;13.816;2023-04-01T02:05:24;2.58;;;1.50;;
17253;SDS011;32542;52.832;13.816;2023-04-01T02:08:39;3.17;;;1.60;;
17253;SDS011;32542;52.832;13.816;2023-04-01T02:11:47;2.25;;;1.35;;
17253;SDS011;32542;52.832;13.816;2023-04-01T02:14:55;3.13;;;1.33;;
17253;SDS011;32542;52.832;13.816;2023-04-01T02:18:03;2.42;;;1.40;;
17253;SDS011;32542;52.832;13.816;2023-04-01T02:21:08;2.05;;;1.40;;
17253;SDS011;32542;52.832;13.816;2023-04-01T02:24:13;2.47;;;1.55;;
17253;SDS011;32542;52.832;13.816;2023-04-01T02:27:17;3.35;;;1.75;;
17253;SDS011;32542;52.832;13.816;2023-04-01T02:30:22;2.85;;;1.58;;
17253;SDS011;32542;52.832;13.816;2023-04-01T02:33:27;2.58;;;1.42;;
17253;SDS011;32542;52.832;13.816;2023-04-01T02:36:31;3.35;;;1.60;;
17253;SDS011;32542;52.832;13.816;2023-04-01T02:39:36;2.13;;;1.50;;
17253;SDS011;32542;52.832;13.816;2023-04-01T02:42:39;1.90;;;1.40;;
17253;SDS011;32542;52.832;13.816;2023-04-01T02:45:42;2.17;;;1.55;;
17253;SDS011;32542;52.832;13.816;2023-04-01T02:48:46;2.00;;;1.42;;
17253;SDS011;32542;52.832;13.816;2023-04-01T02:51:49;2.80;;;1.65;;
17253;SDS011;32542;52.832;13.816;2023-04-01T02:54:54;2.35;;;1.70;;
17253;SDS011;32542;52.832;13.816;2023-04-01T02:57:59;2.03;;;1.40;;
17253;SDS011;32542;52.832;13.816;2023-04-01T03:01:03;2.20;;;1.40;;
17253;SDS011;32542;52.832;13.816;2023-04-01T03:04:06;2.42;;;1.65;;
17253;SDS011;32542;52.832;13.816;2023-04-01T03:07:09;1.60;;;1.30;;
17253;SDS011;32542;52.832;13.816;2023-04-01T03:10:14;1.85;;;1.30;;
17253;SDS011;32542;52.832;13.816;2023-04-01T03:13:17;2.92;;;1.60;;
17253;SDS011;32542;52.832;13.816;2023-04-01T03:16:20;2.40;;;1.38;;
17253;SDS011;32542;52.832;13.816;2023-04-01T03:19:24;3.33;;;1.60;;
17253;SDS011;32542;52.832;13.816;2023-04-01T03:22:27;3.85;;;1.33;;
17253;SDS011;32542;52.832;13.816;2023-04-01T03:25:31;3.03;;;1.40;;
17253;SDS011;32542;52.832;13.816;2023-04-01T03:28:35;3.10;;;1.67;;
17253;SDS011;32542;52.832;13.816;2023-04-01T03:31:38;1.63;;;1.30;;
17253;SDS011;32542;52.832;13.816;2023-04-01T03:34:41;2.05;;;1.38;;
17253;SDS011;32542;52.832;13.816;2023-04-01T03:37:44;3.60;;;1.48;;
17253;SDS011;32542;52.832;13.816;2023-04-01T03:40:49;2.42;;;1.40;;
17253;SDS011;32542;52.832;13.816;2023-04-01T03:43:52;2.00;;;1.30;;
17253;SDS011;32542;52.832;13.816;2023-04-01T03:46:56;1.80;;;1.17;;
17253;SDS011;32542;52.832;13.816;2023-04-01T03:49:59;2.17;;;1.40;;
17253;SDS011;32542;52.832;13.816;2023-04-01T03:53:02;2.33;;;1.58;;
17253;SDS011;32542;52.832;13.816;2023-04-01T03:56:07;2.28;;;1.40;;
17253;SDS011;32542;52.832;13.816;2023-04-01T03:59:10;2.60;;;1.25;;
17253;SDS011;32542;52.832;13.816;2023-04-01T04:02:14;3.03;;;1.65;;
17253;SDS011;32542;52.832;13.816;2023-04-01T04:05:17;2.47;;;1.30;;
17253;SDS011;32542;52.832;13.816;2023-04-01T04:08:20;2.80;;;1.60;;
17253;SDS011;32542;52.832;13.816;2023-04-01T04:11:25;2.00;;;1.40;;
17253;SDS011;32542;52.832;13.816;2023-04-01T04:14:28;2.90;;;1.40;;
17253;SDS011;32542;52.832;13.816;2023-04-01T04:17:31;3.33;;;1.50;;
17253;SDS011;32542;52.832;13.816;2023-04-01T04:20:34;2.60;;;1.50;;
17253;SDS011;32542;52.832;13.816;2023-04-01T04:23:37;1.98;;;1.42;;
17253;SDS011;32542;52.832;13.816;2023-04-01T04:26:42;2.22;;;1.50;;
17253;SDS011;32542;52.832;13.816;2023-04-01T04:29:45;3.67;;;1.70;;
17253;SDS011;32542;52.832;13.816;2023-04-01T04:32:48;2.15;;;1.25;;
17253;SDS011;32542;52.832;13.816;2023-04-01T04:35:51;2.20;;;1.40;;
17253;SDS011;32542;52.832;13.816;2023-04-01T04:38:57;1.75;;;1.25;;
17253;SDS011;32542;52.832;13.816;2023-04-01T04:42:05;2.08;;;1.50;;
17253;SDS011;32542;52.832;13.816;2023-04-01T04:45:08;1.90;;;1.40;;
17253;SDS011;32542;52.832;13.816;2023-04-01T04:48:17;1.50;;;1.23;;
17253;SDS011;32542;52.832;13.816;2023-04-01T04:51:22;1.95;;;1.40;;
17253;SDS011;32542;52.832;13.816;2023-04-01T04:54:26;2.92;;;1.23;;
17253;SDS011;32542;52.832;13.816;2023-04-01T04:57:33;1.63;;;1.30;;
17253;SDS011;32542;52.832;13.816;2023-04-01T05:00:36;2.40;;;1.40;;
17253;SDS011;32542;52.832;13.816;2023-04-01T05:03:44;1.60;;;1.20;;
17253;SDS011;32542;52.832;13.816;2023-04-01T05:06:47;1.55;;;1.20;;
17253;SDS011;32542;52.832;13.816;2023-04-01T05:09:51;1.60;;;1.02;;
17253;SDS011;32542;52.832;13.816;2023-04-01T05:12:55;1.85;;;1.48;;
17253;SDS011;32542;52.832;13.816;2023-04-01T05:15:58;1.73;;;1.20;;
17253;SDS011;32542;52.832;13.816;2023-04-01T05:19:02;1.75;;;1.10;;
17253;SDS011;32542;52.832;13.816;2023-04-01T05:22:06;2.58;;;1.17;;
17253;SDS011;32542;52.832;13.816;2023-04-01T05:25:10;2.05;;;1.20;;
17253;SDS011;32542;52.832;13.816;2023-04-01T05:28:14;2.38;;;1.25;;
17253;SDS011;32542;52.832;13.816;2023-04-01T05:31:19;1.75;;;1.20;;
17253;SDS011;32542;52.832;13.816;2023-04-01T05:34:23;2.00;;;1.40;;
17253;SDS011;32542;52.832;13.816;2023-04-01T05:37:26;2.22;;;1.48;;
17253;SDS011;32542;52.832;13.816;2023-04-01T05:40:29;2.03;;;1.40;;
17253;SDS011;32542;52.832;13.816;2023-04-01T05:43:36;1.98;;;1.35;;
17253;SDS011;32542;52.832;13.816;2023-04-01T05:47:04;1.85;;;1.30;;
17253;SDS011;32542;52.832;13.816;2023-04-01T05:50:07;2.03;;;1.40;;
17253;SDS011;32542;52.832;13.816;2023-04-01T05:53:12;1.73;;;1.55;;
17253;SDS011;32542;52.832;13.816;2023-04-01T05:56:17;2.28;;;1.60;;
17253;SDS011;32542;52.832;13.816;2023-04-01T05:59:25;2.10;;;1.45;;
17253;SDS011;32542;52.832;13.816;2023-04-01T06:02:28;1.90;;;1.38;;
17253;SDS011;32542;52.832;13.816;2023-04-01T06:05:36;2.53;;;1.38;;
17253;SDS011;32542;52.832;13.816;2023-04-01T06:08:41;2.17;;;1.20;;
17253;SDS011;32542;52.832;13.816;2023-04-01T06:11:54;2.13;;;1.55;;
17253;SDS011;32542;52.832;13.816;2023-04-01T06:15:34;2.35;;;1.30;;
17253;SDS011;32542;52.832;13.816;2023-04-01T06:22:16;2.25;;;1.70;;
17253;SDS011;32542;52.832;13.816;2023-04-01T06:29:24;3.28;;;1.70;;
17253;SDS011;32542;52.832;13.816;2023-04-01T06:32:48;2.58;;;1.60;;
17253;SDS011;32542;52.832;13.816;2023-04-01T06:36:08;1.92;;;1.55;;
17253;SDS011;32542;52.832;13.816;2023-04-01T06:39:42;4.13;;;1.67;;
17253;SDS011;32542;52.832;13.816;2023-04-01T06:43:08;2.20;;;1.75;;
17253;SDS011;32542;52.832;13.816;2023-04-01T06:46:56;2.28;;;1.70;;
17253;SDS011;32542;52.832;13.816;2023-04-01T06:50:24;1.83;;;1.50;;
17253;SDS011;32542;52.832;13.816;2023-04-01T06:53:50;2.28;;;1.60;;
17253;SDS011;32542;52.832;13.816;2023-04-01T06:57:20;3.38;;;1.85;;
17253;SDS011;32542;52.832;13.816;2023-04-01T07:00:30;2.60;;;1.63;;
17253;SDS011;32542;52.832;13.816;2023-04-01T07:03:36;3.40;;;2.00;;
17253;SDS011;32542;52.832;13.816;2023-04-01T07:06:45;2.92;;;1.65;;
17253;SDS011;32542;52.832;13.816;2023-04-01T07:09:54;2.65;;;1.80;;
17253;SDS011;32542;52.832;13.816;2023-04-01T07:13:05;3.30;;;1.80;;
17253;SDS011;32542;52.832;13.816;2023-04-01T07:16:36;2.90;;;1.80;;
17253;SDS011;32542;52.832;13.816;2023-04-01T07:19:44;2.78;;;1.50;;
17253;SDS011;32542;52.832;13.816;2023-04-01T07:22:52;1.80;;;1.50;;
17253;SDS011;32542;52.832;13.816;2023-04-01T07:26:06;2.88;;;1.90;;
17253;SDS011;32542;52.832;13.816;2023-04-01T07:29:36;2.55;;;1.98;;
17253;SDS011;32542;52.832;13.816;2023-04-01T07:32:39;2.53;;;1.77;;
17253;SDS011;32542;52.832;13.816;2023-04-01T07:35:46;2.85;;;1.85;;
17253;SDS011;32542;52.832;13.816;2023-04-01T07:38:58;2.63;;;1.90;;
17253;SDS011;32542;52.832;13.816;2023-04-01T07:42:30;3.03;;;1.90;;
17253;SDS011;32542;52.832;13.816;2023-04-01T07:45:45;2.47;;;1.90;;
17253;SDS011;32542;52.832;13.816;2023-04-01T07:48:57;2.70;;;1.77;;
17253;SDS011;32542;52.832;13.816;2023-04-01T07:52:08;3.05;;;1.70;;
17253;SDS011;32542;52.832;13.816;2023-04-01T07:55:24;3.05;;;2.13;;
17253;SDS011;32542;52.832;13.816;2023-04-01T07:58:35;2.95;;;1.77;;
17253;SDS011;32542;52.832;13.816;2023-04-01T08:02:06;3.28;;;2.03;;
17253;SDS011;32542;52.832;13.816;2023-04-01T08:05:19;4.30;;;1.90;;
17253;SDS011;32542;52.832;13.816;2023-04-01T08:08:32;2.65;;;2.00;;
17253;SDS011;32542;52.832;13.816;2023-04-01T08:12:07;2.65;;;1.90;;
17253;SDS011;32542;52.832;13.816;2023-04-01T08:15:36;2.50;;;1.80;;
17253;SDS011;32542;52.832;13.816;2023-04-01T08:18:57;3.60;;;2.30;;
17253;SDS011;32542;52.832;13.816;2023-04-01T08:22:09;2.90;;;2.00;;
17253;SDS011;32542;52.832;13.816;2023-04-01T08:25:16;3.35;;;1.92;;
17253;SDS011;32542;52.832;13.816;2023-04-01T08:28:27;3.40;;;1.90;;
17253;SDS011;32542;52.832;13.816;2023-04-01T08:31:37;3.60;;;2.00;;
17253;SDS011;32542;52.832;13.816;2023-04-01T08:34:45;3.72;;;2.22;;
17253;SDS011;32542;52.832;13.816;2023-04-01T08:38:01;3.67;;;2.10;;
17253;SDS011;32542;52.832;13.816;2023-04-01T08:41:26;3.45;;;2.28;;
17253;SDS011;32542;52.832;13.816;2023-04-01T08:45:19;2.35;;;1.83;;
17253;SDS011;32542;52.832;13.816;2023-04-01T08:52:15;2.60;;;1.80;;
17253;SDS011;32542;52.832;13.816;2023-04-01T08:55:34;2.65;;;1.95;;
17253;SDS011;32542;52.832;13.816;2023-04-01T08:58:52;3.08;;;2.10;;
17253;SDS011;32542;52.832;13.816;2023-04-01T09:02:16;2.80;;;1.80;;
17253;SDS011;32542;52.832;13.816;2023-04-01T09:05:44;3.13;;;2.10;;
17253;SDS011;32542;52.832;13.816;2023-04-01T09:09:12;4.35;;;2.65;;
17253;SDS011;32542;52.832;13.816;2023-04-01T09:12:45;4.97;;;2.67;;
17253;SDS011;32542;52.832;13.816;2023-04-01T09:16:06;3.53;;;2.03;;
17253;SDS011;32542;52.832;13.816;2023-04-01T09:19:25;4.30;;;2.30;;
17253;SDS011;32542;52.832;13.816;2023-04-01T09:22:39;4.03;;;2.45;;
17253;SDS011;32542;52.832;13.816;2023-04-01T09:25:54;3.63;;;2.22;;
17253;SDS011;32542;52.832;13.816;2023-04-01T09:29:05;3.60;;;2.42;;
17253;SDS011;32542;52.832;13.816;2023-04-01T09:36:04;3.33;;;2.40;;
17253;SDS011;32542;52.832;13.816;2023-04-01T09:42:45;3.35;;;2.22;;
17253;SDS011;32542;52.832;13.816;2023-04-01T09:46:14;3.58;;;2.35;;
17253;SDS011;32542;52.832;13.816;2023-04-01T09:49:37;3.08;;;2.30;;
17253;SDS011;32542;52.832;13.816;2023-04-01T09:53:03;3.60;;;2.60;;
17253;SDS011;32542;52.832;13.816;2023-04-01T09:56:26;4.38;;;2.72;;
17253;SDS011;32542;52.832;13.816;2023-04-01T10:00:02;2.97;;;2.10;;
17253;SDS011;32542;52.832;13.816;2023-04-01T10:03:41;3.78;;;2.22;;
17253;SDS011;32542;52.832;13.816;2023-04-01T10:07:21;3.53;;;2.30;;
17253;SDS011;32542;52.832;13.816;2023-04-01T10:17:44;3.92;;;2.40;;
17253;SDS011;32542;52.832;13.816;2023-04-01T10:21:10;3.17;;;2.40;;
17253;SDS011;32542;52.832;13.816;2023-04-01T10:28:32;5.25;;;2.60;;
17253;SDS011;32542;52.832;13.816;2023-04-01T10:32:17;3.78;;;2.40;;
17253;SDS011;32542;52.832;13.816;2023-04-01T10:43:37;4.30;;;2.33;;
17253;SDS011;32542;52.832;13.816;2023-04-01T10:47:26;4.65;;;2.25;;
17253;SDS011;32542;52.832;13.816;2023-04-01T10:51:04;3.53;;;2.22;;
17253;SDS011;32542;52.832;13.816;2023-04-01T10:54:34;4.15;;;2.40;;
17253;SDS011;32542;52.832;13.816;2023-04-01T10:58:24;3.67;;;2.60;;
17253;SDS011;32542;52.832;13.816;2023-04-01T11:06:46;3.35;;;2.30;;
17253;SDS011;32542;52.832;13.816;2023-04-01T11:10:26;4.13;;;2.38;;
17253;SDS011;32542;52.832;13.816;2023-04-01T11:17:52;2.97;;;2.33;;
17253;SDS011;32542;52.832;13.816;2023-04-01T11:25:16;3.53;;;2.33;;
17253;SDS011;32542;52.832;13.816;2023-04-01T11:29:03;3.78;;;2.30;;
17253;SDS011;32542;52.832;13.816;2023-04-01T11:32:25;3.47;;;2.25;;
17253;SDS011;32542;52.832;13.816;2023-04-01T11:35:53;2.92;;;2.35;;
17253;SDS011;32542;52.832;13.816;2023-04-01T11:39:07;4.70;;;2.63;;
17253;SDS011;32542;52.832;13.816;2023-04-01T11:42:43;3.53;;;1.90;;
17253;SDS011;32542;52.832;13.816;2023-04-01T11:46:14;3.72;;;2.67;;
17253;SDS011;32542;52.832;13.816;2023-04-01T11:49:32;3.67;;;2.47;;
17253;SDS011;32542;52.832;13.816;2023-04-01T11:53:17;3.47;;;2.45;;
17253;SDS011;32542;52.832;13.816;2023-04-01T11:56:41;3.50;;;2.58;;
17253;SDS011;32542;52.832;13.816;2023-04-01T11:59:58;4.50;;;2.55;;
17253;SDS011;32542;52.832;13.816;2023-04-01T12:03:22;2.95;;;2.35;;
17253;SDS011;32542;52.832;13.816;2023-04-01T12:06:48;3.28;;;2.35;;
17253;SDS011;32542;52.832;13.816;2023-04-01T12:09:58;3.38;;;2.55;;
17253;SDS011;32542;52.832;13.816;2023-04-01T12:13:11;3.40;;;2.50;;
17253;SDS011;32542;52.832;13.816;2023-04-01T12:16:29;2.88;;;2.05;;
17253;SDS011;32542;52.832;13.816;2023-04-01T12:19:46;2.83;;;2.40;;
17253;SDS011;32542;52.832;13.816;2023-04-01T12:22:57;4.03;;;2.70;;
17253;SDS011;32542;52.832;13.816;2023-04-01T12:29:47;3.25;;;2.33;;
17253;SDS011;32542;52.832;13.816;2023-04-01T12:33:04;3.08;;;2.50;;
17253;SDS011;32542;52.832;13.816;2023-04-01T12:36:25;2.72;;;2.22;;
17253;SDS011;32542;52.832;13.816;2023-04-01T12:43:28;4.38;;;2.60;;
17253;SDS011;32542;52.832;13.816;2023-04-01T12:46:51;3.83;;;2.63;;
17253;SDS011;32542;52.832;13.816;2023-04-01T12:50:13;3.22;;;2.47;;
17253;SDS011;32542;52.832;13.816;2023-04-01T12:53:30;3.70;;;2.63;;
17253;SDS011;32542;52.832;13.816;2023-04-01T12:56:46;3.72;;;2.35;;
17253;SDS011;32542;52.832;13.816;2023-04-01T13:00:08;2.95;;;2.33;;
17253;SDS011;32542;52.832;13.816;2023-04-01T13:03:35;2.67;;;2.10;;
17253;SDS011;32542;52.832;13.816;2023-04-01T13:06:57;4.00;;;2.47;;
17253;SDS011;32542;52.832;13.816;2023-04-01T13:10:27;4.18;;;2.78;;
17253;SDS011;32542;52.832;13.816;2023-04-01T13:13:47;3.60;;;2.42;;
17253;SDS011;32542;52.832;13.816;2023-04-01T13:17:08;3.25;;;2.33;;
17253;SDS011;32542;52.832;13.816;2023-04-01T13:20:19;3.17;;;2.38;;
17253;SDS011;32542;52.832;13.816;2023-04-01T13:23:38;4.47;;;2.80;;
17253;SDS011;32542;52.832;13.816;2023-04-01T13:26:56;4.10;;;2.80;;
17253;SDS011;32542;52.832;13.816;2023-04-01T13:30:09;3.80;;;2.53;;
17253;SDS011;32542;52.832;13.816;2023-04-01T13:33:25;2.80;;;2.15;;
17253;SDS011;32542;52.832;13.816;2023-04-01T13:36:39;3.70;;;2.75;;
17253;SDS011;32542;52.832;13.816;2023-04-01T13:39:57;4.25;;;2.60;;
17253;SDS011;32542;52.832;13.816;2023-04-01T13:43:17;4.22;;;2.53;;
17253;SDS011;32542;52.832;13.816;2023-04-01T13:46:28;3.13;;;2.25;;
17253;SDS011;32542;52.832;13.816;2023-04-01T13:49:48;3.55;;;2.40;;
17253;SDS011;32542;52.832;13.816;2023-04-01T13:56:57;2.72;;;2.42;;
17253;SDS011;32542;52.832;13.816;2023-04-01T14:00:19;3.95;;;2.50;;
17253;SDS011;32542;52.832;13.816;2023-04-01T14:03:30;2.85;;;2.30;;
17253;SDS011;32542;52.832;13.816;2023-04-01T14:06:45;3.42;;;2.47;;
17253;SDS011;32542;52.832;13.816;2023-04-01T14:10:04;3.65;;;2.53;;
17253;SDS011;32542;52.832;13.816;2023-04-01T14:13:12;3.88;;;2.55;;
17253;SDS011;32542;52.832;13.816;2023-04-01T14:16:24;3.80;;;2.28;;
17253;SDS011;32542;52.832;13.816;2023-04-01T14:19:45;3.60;;;2.55;;
17253;SDS011;32542;52.832;13.816;2023-04-01T14:23:12;3.83;;;2.60;;
17253;SDS011;32542;52.832;13.816;2023-04-01T14:26:44;4.03;;;2.60;;
17253;SDS011;32542;52.832;13.816;2023-04-01T14:30:16;4.00;;;2.78;;
17253;SDS011;32542;52.832;13.816;2023-04-01T14:33:45;3.15;;;2.20;;
17253;SDS011;32542;52.832;13.816;2023-04-01T14:37:12;4.30;;;2.30;;
17253;SDS011;32542;52.832;13.816;2023-04-01T14:40:26;3.97;;;2.30;;
17253;SDS011;32542;52.832;13.816;2023-04-01T14:47:20;3.33;;;2.40;;
17253;SDS011;32542;52.832;13.816;2023-04-01T14:50:40;3.67;;;2.67;;
17253;SDS011;32542;52.832;13.816;2023-04-01T14:53:51;4.05;;;2.60;;
17253;SDS011;32542;52.832;13.816;2023-04-01T14:57:04;2.85;;;2.15;;
17253;SDS011;32542;52.832;13.816;2023-04-01T15:00:15;2.95;;;2.33;;
17253;SDS011;32542;52.832;13.816;2023-04-01T15:03:22;4.25;;;2.50;;
17253;SDS011;32542;52.832;13.816;2023-04-01T15:06:38;3.45;;;2.50;;
17253;SDS011;32542;52.832;13.816;2023-04-01T15:09:52;4.60;;;2.60;;
17253;SDS011;32542;52.832;13.816;2023-04-01T15:13:05;3.95;;;2.40;;
17253;SDS011;32542;52.832;13.816;2023-04-01T15:16:20;4.78;;;2.47;;
17253;SDS011;32542;52.832;13.816;2023-04-01T15:19:31;3.95;;;2.33;;
17253;SDS011;32542;52.832;13.816;2023-04-01T15:22:47;3.08;;;2.38;;
17253;SDS011;32542;52.832;13.816;2023-04-01T15:26:09;7.00;;;3.05;;
17253;SDS011;32542;52.832;13.816;2023-04-01T15:33:01;3.40;;;2.45;;
17253;SDS011;32542;52.832;13.816;2023-04-01T15:36:33;3.40;;;2.70;;
17253;SDS011;32542;52.832;13.816;2023-04-01T15:39:49;4.05;;;2.58;;
17253;SDS011;32542;52.832;13.816;2023-04-01T15:43:02;3.90;;;2.40;;
17253;SDS011;32542;52.832;13.816;2023-04-01T15:46:24;5.00;;;2.50;;
17253;SDS011;32542;52.832;13.816;2023-04-01T15:49:35;3.20;;;2.47;;
17253;SDS011;32542;52.832;13.816;2023-04-01T15:52:42;3.33;;;2.40;;
17253;SDS011;32542;52.832;13.816;2023-04-01T15:55:53;4.30;;;2.50;;
17253;SDS011;32542;52.832;13.816;2023-04-01T15:59:04;3.20;;;2.40;;
17253;SDS011;32542;52.832;13.816;2023-04-01T16:02:22;3.75;;;2.50;;
17253;SDS011;32542;52.832;13.816;2023-04-01T16:05:37;3.95;;;2.38;;
17253;SDS011;32542;52.832;13.816;2023-04-01T16:08:59;3.20;;;2.58;;
17253;SDS011;32542;52.832;13.816;2023-04-01T16:12:15;3.58;;;2.53;;
17253;SDS011;32542;52.832;13.816;2023-04-01T16:15:23;3.72;;;2.35;;
17253;SDS011;32542;52.832;13.816;2023-04-01T16:22:04;3.60;;;2.13;;
17253;SDS011;32542;52.832;13.816;2023-04-01T16:25:14;2.80;;;2.30;;
17253;SDS011;32542;52.832;13.816;2023-04-01T16:28:23;4.97;;;2.55;;
17253;SDS011;32542;52.832;13.816;2023-04-01T16:31:34;3.42;;;2.67;;
17253;SDS011;32542;52.832;13.816;2023-04-01T16:34:45;3.50;;;2.50;;
17253;SDS011;32542;52.832;13.816;2023-04-01T16:38:01;3.78;;;2.60;;
17253;SDS011;32542;52.832;13.816;2023-04-01T16:41:13;3.38;;;2.50;;
17253;SDS011;32542;52.832;13.816;2023-04-01T16:44:20;4.15;;;2.53;;
17253;SDS011;32542;52.832;13.816;2023-04-01T16:47:27;3.88;;;2.28;;
17253;SDS011;32542;52.832;13.816;2023-04-01T16:50:39;3.33;;;2.35;;
17253;SDS011;32542;52.832;13.816;2023-04-01T16:53:52;2.92;;;2.40;;
17253;SDS011;32542;52.832;13.816;2023-04-01T16:57:11;2.90;;;2.20;;
17253;SDS011;32542;52.832;13.816;2023-04-01T17:00:24;4.32;;;2.47;;
17253;SDS011;32542;52.832;13.816;2023-04-01T17:03:29;2.90;;;2.30;;
17253;SDS011;32542;52.832;13.816;2023-04-01T17:06:36;3.33;;;2.20;;
17253;SDS011;32542;52.832;13.816;2023-04-01T17:09:55;3.88;;;2.03;;
17253;SDS011;32542;52.832;13.816;2023-04-01T17:13:16;3.00;;;2.35;;
17253;SDS011;32542;52.832;13.816;2023-04-01T17:20:17;3.88;;;2.38;;
17253;SDS011;32542;52.832;13.816;2023-04-01T17:23:29;3.20;;;2.03;;
17253;SDS011;32542;52.832;13.816;2023-04-01T17:26:40;2.90;;;2.20;;
17253;SDS011;32542;52.832;13.816;2023-04-01T17:33:26;4.20;;;2.85;;
17253;SDS011;32542;52.832;13.816;2023-04-01T17:36:53;4.10;;;2.38;;
17253;SDS011;32542;52.832;13.816;2023-04-01T17:43:36;3.58;;;2.30;;
17253;SDS011;32542;52.832;13.816;2023-04-01T17:46:50;2.80;;;2.10;;
17253;SDS011;32542;52.832;13.816;2023-04-01T17:50:07;2.83;;;2.22;;
17253;SDS011;32542;52.832;13.816;2023-04-01T17:53:26;2.72;;;2.22;;
17253;SDS011;32542;52.832;13.816;2023-04-01T17:56:39;2.80;;;2.22;;
17253;SDS011;32542;52.832;13.816;2023-04-01T17:59:55;2.67;;;2.33;;
17253;SDS011;32542;52.832;13.816;2023-04-01T18:03:12;2.90;;;2.33;;
17253;SDS011;32542;52.832;13.816;2023-04-01T18:06:26;2.83;;;2.35;;
17253;SDS011;32542;52.832;13.816;2023-04-01T18:09:39;3.28;;;2.22;;
17253;SDS011;32542;52.832;13.816;2023-04-01T18:16:43;3.60;;;2.20;;
17253;SDS011;32542;52.832;13.816;2023-04-01T18:23:39;2.90;;;2.05;;
17253;SDS011;32542;52.832;13.816;2023-04-01T18:27:03;2.92;;;2.03;;
17253;SDS011;32542;52.832;13.816;2023-04-01T18:30:07;3.42;;;2.25;;
17253;SDS011;32542;52.832;13.816;2023-04-01T18:33:18;3.65;;;2.42;;
17253;SDS011;32542;52.832;13.816;2023-04-01T18:36:26;4.13;;;2.20;;
17253;SDS011;32542;52.832;13.816;2023-04-01T18:39:42;2.90;;;2.20;;
17253;SDS011;32542;52.832;13.816;2023-04-01T18:42:55;3.25;;;2.17;;
17253;SDS011;32542;52.832;13.816;2023-04-01T18:46:06;3.30;;;2.00;;
17253;SDS011;32542;52.832;13.816;2023-04-01T18:49:23;3.05;;;2.05;;
17253;SDS011;32542;52.832;13.816;2023-04-01T18:52:33;3.22;;;2.47;;
17253;SDS011;32542;52.832;13.816;2023-04-01T18:55:39;2.53;;;2.10;;
17253;SDS011;32542;52.832;13.816;2023-04-01T18:58:45;4.97;;;2.40;;
17253;SDS011;32542;52.832;13.816;2023-04-01T19:01:57;3.35;;;2.47;;
17253;SDS011;32542;52.832;13.816;2023-04-01T19:05:10;3.72;;;2.30;;
17253;SDS011;32542;52.832;13.816;2023-04-01T19:08:20;3.20;;;2.20;;
17253;SDS011;32542;52.832;13.816;2023-04-01T19:11:30;3.13;;;2.20;;
17253;SDS011;32542;52.832;13.816;2023-04-01T19:14:51;3.45;;;2.28;;
17253;SDS011;32542;52.832;13.816;2023-04-01T19:18:02;3.25;;;2.50;;
17253;SDS011;32542;52.832;13.816;2023-04-01T19:21:27;3.58;;;2.00;;
17253;SDS011;32542;52.832;13.816;2023-04-01T19:24:42;2.50;;;1.80;;
17253;SDS011;32542;52.832;13.816;2023-04-01T19:28:00;2.95;;;2.20;;
17253;SDS011;32542;52.832;13.816;2023-04-01T19:31:12;2.13;;;1.88;;
17253;SDS011;32542;52.832;13.816;2023-04-01T19:34:27;3.50;;;2.20;;
17253;SDS011;32542;52.832;13.816;2023-04-01T19:37:44;3.92;;;2.42;;
17253;SDS011;32542;52.832;13.816;2023-04-01T19:40:53;4.03;;;2.35;;
17253;SDS011;32542;52.832;13.816;2023-04-01T19:44:03;3.00;;;2.20;;
17253;SDS011;32542;52.832;13.816;2023-04-01T19:47:16;3.67;;;2.30;;
17253;SDS011;32542;52.832;13.816;2023-04-01T19:50:27;5.20;;;2.60;;
17253;SDS011;32542;52.832;13.816;2023-04-01T19:53:40;3.58;;;2.55;;
17253;SDS011;32542;52.832;13.816;2023-04-01T19:56:52;2.25;;;1.90;;
17253;SDS011;32542;52.832;13.816;2023-04-01T20:00:05;3.80;;;2.60;;
17253;SDS011;32542;52.832;13.816;2023-04-01T20:03:22;3.33;;;2.13;;
17253;SDS011;32542;52.832;13.816;2023-04-01T20:06:35;4.68;;;2.20;;
17253;SDS011;32542;52.832;13.816;2023-04-01T20:09:50;3.83;;;2.53;;
17253;SDS011;32542;52.832;13.816;2023-04-01T20:13:00;4.60;;;2.85;;
17253;SDS011;32542;52.832;13.816;2023-04-01T20:16:13;3.10;;;2.38;;
17253;SDS011;32542;52.832;13.816;2023-04-01T20:19:21;3.35;;;1.83;;
17253;SDS011;32542;52.832;13.816;2023-04-01T20:22:33;3.83;;;2.50;;
17253;SDS011;32542;52.832;13.816;2023-04-01T20:25:57;4.63;;;2.38;;
17253;SDS011;32542;52.832;13.816;2023-04-01T20:32:45;2.88;;;2.38;;
17253;SDS011;32542;52.832;13.816;2023-04-01T20:36:04;3.03;;;2.50;;
17253;SDS011;32542;52.832;13.816;2023-04-01T20:39:20;3.97;;;2.75;;
17253;SDS011;32542;52.832;13.816;2023-04-01T20:42:57;3.13;;;2.40;;
17253;SDS011;32542;52.832;13.816;2023-04-01T20:46:19;2.85;;;2.30;;